Terminal Aerodrome Forecast
Issued by NWS Wilmington, OH

Current Version | Previous Version | Text Only | Print | Product List | Glossary Off
Versions: 1 2 3 4 5 6 7 8 9 10 11 12 13 14 15 16 17 18 19 20 21 22 23 24 25 26 27 28 29 30 31 32 33

000
FTUS41 KILN 150207 AAA
TAFDAY
TAF AMD
KDAY 150207Z 1502/1524 34008KT 3SM BR OVC004
      TEMPO 1502/1504 2SM -FZDZ BR
     FM150500 35005KT P6SM OVC015
     FM150800 02004KT 4SM BR BKN035
     FM151500 07006KT P6SM BKN040=

USA.gov is the U.S. government's official web portal to all federal, state and local government web resources and services.